createdAt,value
2023-03-02T00:01:59.993Z,54.20
2023-03-02T00:04:37.086Z,54.20
2023-03-02T00:07:08.835Z,54.30
2023-03-02T00:09:38.097Z,54.30
2023-03-02T00:12:07.803Z,54.80
2023-03-02T00:14:38.045Z,54.30
2023-03-02T00:17:07.979Z,54.30
2023-03-02T00:19:37.833Z,54.30
2023-03-02T00:22:06.725Z,54.40
2023-03-02T00:24:35.147Z,54.40
2023-03-02T00:27:03.481Z,54.80
2023-03-02T00:29:31.844Z,54.40
2023-03-02T00:32:00.293Z,54.50
2023-03-02T00:34:32.344Z,54.60
2023-03-02T00:37:02.316Z,54.60
2023-03-02T00:39:30.710Z,54.60
2023-03-02T00:41:59.011Z,54.60
2023-03-02T00:44:27.386Z,54.50
2023-03-02T00:46:55.792Z,54.50
2023-03-02T00:49:24.809Z,54.60
2023-03-02T00:51:53.323Z,54.60
2023-03-02T00:54:23.013Z,54.60
2023-03-02T00:56:51.420Z,54.70
2023-03-02T00:59:27.336Z,54.60
2023-03-02T01:02:11.664Z,54.60
2023-03-02T01:04:43.328Z,54.60
2023-03-02T01:07:14.984Z,54.60
2023-03-02T01:09:46.582Z,54.60
2023-03-02T01:12:14.977Z,54.60
2023-03-02T01:14:47.127Z,54.50
2023-03-02T01:17:16.946Z,54.60
2023-03-02T01:19:45.954Z,54.50
2023-03-02T01:22:14.540Z,55.30
2023-03-02T01:24:44.325Z,54.50
2023-03-02T01:27:12.769Z,54.50
2023-03-02T01:29:41.186Z,54.50
2023-03-02T01:32:10.062Z,54.80
2023-03-02T01:34:38.589Z,54.50
2023-03-02T01:37:07.922Z,54.50
2023-03-02T01:39:36.351Z,54.50
2023-03-02T01:42:06.293Z,54.50
2023-03-02T01:44:45.687Z,54.50
2023-03-02T01:47:18.994Z,54.50
2023-03-02T01:49:59.175Z,54.50
2023-03-02T01:52:33.120Z,54.50
2023-03-02T01:55:06.153Z,54.50
2023-03-02T01:57:43.771Z,54.50
2023-03-02T02:00:17.616Z,54.50
2023-03-02T02:02:46.418Z,54.40
2023-03-02T02:05:21.027Z,54.40
2023-03-02T02:07:49.924Z,54.30
2023-03-02T02:10:19.406Z,54.30
2023-03-02T02:12:49.108Z,54.40
2023-03-02T02:15:17.699Z,54.40
2023-03-02T02:17:46.098Z,54.40
2023-03-02T02:20:25.164Z,54.40
2023-03-02T02:23:04.429Z,54.50
2023-03-02T02:25:47.314Z,54.50
2023-03-02T02:28:23.389Z,54.40
2023-03-02T02:30:59.368Z,54.40
2023-03-02T02:33:28.754Z,54.40
2023-03-02T02:36:06.294Z,54.40
2023-03-02T02:38:36.196Z,54.30
2023-03-02T02:41:08.625Z,54.30
2023-03-02T02:43:38.843Z,54.30
2023-03-02T02:46:08.101Z,54.30
2023-03-02T02:48:36.506Z,54.60
2023-03-02T02:51:05.626Z,54.60
2023-03-02T02:53:42.956Z,54.50
2023-03-02T02:56:13.059Z,54.50
2023-03-02T02:58:47.668Z,54.50
2023-03-02T03:01:18.547Z,54.40
2023-03-02T03:03:53.854Z,54.40
2023-03-02T03:06:27.362Z,54.40
2023-03-02T03:09:00.570Z,54.40
2023-03-02T03:11:41.775Z,54.50
2023-03-02T03:14:15.386Z,54.80
2023-03-02T03:16:48.816Z,54.80
2023-03-02T03:19:23.034Z,54.50
2023-03-02T03:21:55.820Z,54.50
2023-03-02T03:24:26.361Z,54.40
2023-03-02T03:26:57.063Z,54.40
2023-03-02T03:29:30.053Z,54.30
2023-03-02T03:32:03.455Z,54.30
2023-03-02T03:34:32.408Z,54.30
2023-03-02T03:37:01.915Z,54.30
2023-03-02T03:39:34.102Z,54.30
2023-03-02T03:42:02.839Z,54.30
2023-03-02T03:44:32.636Z,54.30
2023-03-02T03:47:01.763Z,54.30
2023-03-02T03:49:30.785Z,54.30
2023-03-02T03:51:59.155Z,54.50
2023-03-02T03:54:27.832Z,54.50
2023-03-02T03:56:56.334Z,54.50
2023-03-02T03:59:27.058Z,54.60
2023-03-02T04:02:04.102Z,54.50
2023-03-02T04:04:38.143Z,54.50
2023-03-02T04:07:10.746Z,54.60
2023-03-02T04:09:39.807Z,54.50
2023-03-02T04:12:11.111Z,54.60
2023-03-02T04:14:41.957Z,54.60
2023-03-02T04:17:11.930Z,54.60
2023-03-02T04:19:45.760Z,54.60
2023-03-02T04:22:15.277Z,54.50
2023-03-02T04:24:44.406Z,54.50
2023-03-02T04:27:13.843Z,54.50
2023-03-02T04:29:43.942Z,54.40
2023-03-02T04:32:15.051Z,54.40
2023-03-02T04:34:46.102Z,54.40
2023-03-02T04:37:16.037Z,54.40
2023-03-02T04:39:47.481Z,54.20
2023-03-02T04:42:15.963Z,54.40
2023-03-02T04:44:44.298Z,54.20
2023-03-02T04:47:14.044Z,54.20
2023-03-02T04:49:42.417Z,54.30
2023-03-02T04:52:10.931Z,54.30
2023-03-02T04:54:39.290Z,54.40
2023-03-02T04:57:08.566Z,54.40
2023-03-02T04:59:36.931Z,55.10
2023-03-02T05:02:05.671Z,54.50
2023-03-02T05:04:35.406Z,54.50
2023-03-02T05:07:03.839Z,54.50
2023-03-02T05:09:32.121Z,54.40
2023-03-02T05:12:02.487Z,54.50
2023-03-02T05:14:31.268Z,54.50
2023-03-02T05:17:00.321Z,54.50
2023-03-02T05:19:28.806Z,54.50
2023-03-02T05:21:58.503Z,54.40
2023-03-02T05:24:27.396Z,54.40
2023-03-02T05:26:55.893Z,54.40
2023-03-02T05:29:24.259Z,54.20
2023-03-02T05:31:53.100Z,54.10
2023-03-02T05:34:21.618Z,54.00
2023-03-02T05:36:49.955Z,53.90
2023-03-02T05:39:19.650Z,53.90
2023-03-02T05:41:48.303Z,53.90
2023-03-02T05:44:16.624Z,53.90
2023-03-02T05:46:45.051Z,54.00
2023-03-02T05:49:13.483Z,54.00
2023-03-02T05:51:41.819Z,54.20
2023-03-02T05:54:10.120Z,54.30
2023-03-02T05:56:39.916Z,54.40
2023-03-02T05:59:08.262Z,54.30
2023-03-02T06:01:37.009Z,54.40
2023-03-02T06:04:05.700Z,54.50
2023-03-02T06:06:34.365Z,54.50
2023-03-02T06:09:02.919Z,54.50
2023-03-02T06:11:31.365Z,54.70
2023-03-02T06:14:01.048Z,54.50
2023-03-02T06:16:29.397Z,54.50
2023-03-02T06:18:57.831Z,54.50
2023-03-02T06:21:26.163Z,54.50
2023-03-02T06:23:54.541Z,54.60
2023-03-02T06:26:23.102Z,54.60
2023-03-02T06:28:53.756Z,54.70
2023-03-02T06:31:23.915Z,54.70
2023-03-02T06:33:52.584Z,55.30
2023-03-02T06:36:21.023Z,54.70
2023-03-02T06:38:49.420Z,54.70
2023-03-02T06:41:18.202Z,54.80
2023-03-02T06:43:46.714Z,54.70
2023-03-02T06:46:15.084Z,54.80
2023-03-02T06:48:44.874Z,54.90
2023-03-02T06:51:13.745Z,54.80
2023-03-02T06:53:42.046Z,54.70
2023-03-02T06:56:10.733Z,54.60
2023-03-02T06:58:39.102Z,54.60
2023-03-02T07:01:08.828Z,54.70
2023-03-02T07:03:37.565Z,54.70
2023-03-02T07:06:08.021Z,55.00
2023-03-02T07:08:36.812Z,54.90
2023-03-02T07:11:08.395Z,54.90
2023-03-02T07:13:38.020Z,55.00
2023-03-02T07:16:10.969Z,54.90
2023-03-02T07:18:39.566Z,54.90
2023-03-02T07:21:09.371Z,54.90
2023-03-02T07:23:37.787Z,54.70
2023-03-02T07:26:08.611Z,54.80
2023-03-02T07:28:39.540Z,54.80
2023-03-02T07:31:08.606Z,54.90
2023-03-02T07:33:37.721Z,55.00
2023-03-02T07:36:09.549Z,55.30
2023-03-02T07:38:39.190Z,55.10
2023-03-02T07:41:09.042Z,55.20
2023-03-02T07:43:37.679Z,55.30
2023-03-02T07:46:06.982Z,55.40
2023-03-02T07:48:36.326Z,55.40
2023-03-02T07:51:08.324Z,55.40
2023-03-02T07:53:37.172Z,55.40
2023-03-02T07:56:10.423Z,55.40
2023-03-02T07:58:39.002Z,55.60
2023-03-02T08:01:07.697Z,55.50
2023-03-02T08:03:36.269Z,55.60
2023-03-02T08:06:12.957Z,55.60
2023-03-02T08:08:41.461Z,55.70
2023-03-02T08:11:12.935Z,55.70
2023-03-02T08:13:41.888Z,55.80
2023-03-02T08:16:13.765Z,55.90
2023-03-02T08:18:43.460Z,55.90
2023-03-02T08:21:17.083Z,55.90
2023-03-02T08:23:46.097Z,56.00
2023-03-02T08:26:17.464Z,56.00
2023-03-02T08:28:47.147Z,56.10
2023-03-02T08:31:16.373Z,56.00
2023-03-02T08:33:46.137Z,56.10
2023-03-02T08:36:18.918Z,56.20
2023-03-02T08:38:49.061Z,56.20
2023-03-02T08:41:19.871Z,56.20
2023-03-02T08:43:48.426Z,56.30
2023-03-02T08:46:19.579Z,56.30
2023-03-02T08:48:49.737Z,56.30
2023-03-02T08:51:23.038Z,56.30
2023-03-02T08:53:55.173Z,56.40
2023-03-02T08:56:25.655Z,56.50
2023-03-02T08:58:55.936Z,56.60
2023-03-02T09:01:28.099Z,56.70
2023-03-02T09:03:57.608Z,56.80
2023-03-02T09:06:27.883Z,56.90
2023-03-02T09:08:56.336Z,57.00
2023-03-02T09:11:25.277Z,57.00
2023-03-02T09:13:54.641Z,57.10
2023-03-02T09:16:24.230Z,57.10
2023-03-02T09:18:52.956Z,57.20
2023-03-02T09:21:21.444Z,57.20
2023-03-02T09:23:53.785Z,57.20
2023-03-02T09:26:22.270Z,57.30
2023-03-02T09:28:50.670Z,57.20
2023-03-02T09:31:18.980Z,57.20
2023-03-02T09:33:47.405Z,57.20
2023-03-02T09:36:24.613Z,57.20
2023-03-02T09:38:55.474Z,57.20
2023-03-02T09:41:59.215Z,57.30
2023-03-02T09:45:01.073Z,57.20
2023-03-02T09:47:36.352Z,57.20
2023-03-02T09:50:23.178Z,57.20
2023-03-02T09:53:07.560Z,57.20
2023-03-02T09:55:39.142Z,57.20
2023-03-02T09:58:16.508Z,57.40
2023-03-02T10:00:46.137Z,57.30
2023-03-02T10:03:19.979Z,57.40
2023-03-02T10:05:50.959Z,57.50
2023-03-02T10:08:23.697Z,57.70
2023-03-02T10:11:01.047Z,57.80
2023-03-02T10:13:35.035Z,57.90
2023-03-02T10:16:20.038Z,57.90
2023-03-02T10:18:57.744Z,57.90
2023-03-02T10:21:31.239Z,57.90
2023-03-02T10:24:07.047Z,57.90
2023-03-02T10:26:43.038Z,57.80
2023-03-02T10:29:44.028Z,57.90
2023-03-02T10:32:21.516Z,57.90
2023-03-02T10:34:51.094Z,57.80
2023-03-02T10:37:25.010Z,57.70
2023-03-02T10:39:53.459Z,57.60
2023-03-02T10:42:30.991Z,57.50
2023-03-02T10:45:09.898Z,57.40
2023-03-02T10:47:38.293Z,57.40
2023-03-02T10:50:22.605Z,57.10
2023-03-02T10:52:59.987Z,56.80
2023-03-02T10:55:29.223Z,56.40
2023-03-02T10:58:05.683Z,56.00
2023-03-02T11:00:36.847Z,55.70
2023-03-02T11:03:21.710Z,55.60
2023-03-02T11:05:50.259Z,55.40
2023-03-02T11:08:22.122Z,55.30
2023-03-02T11:10:59.781Z,55.20
2023-03-02T11:13:32.726Z,55.00
2023-03-02T11:16:03.229Z,54.80
2023-03-02T11:18:38.887Z,54.70
2023-03-02T11:21:11.785Z,54.50
2023-03-02T11:23:57.199Z,54.30
2023-03-02T11:26:29.379Z,53.80
2023-03-02T11:29:05.024Z,53.80
2023-03-02T11:31:40.333Z,53.50
2023-03-02T11:34:26.061Z,53.30
2023-03-02T11:37:03.438Z,53.30
2023-03-02T11:39:57.789Z,53.10
2023-03-02T11:42:30.531Z,52.80
2023-03-02T11:45:05.445Z,52.70
2023-03-02T11:47:34.786Z,52.50
2023-03-02T11:50:08.495Z,52.70
2023-03-02T11:52:43.229Z,52.60
2023-03-02T11:55:20.362Z,52.50
2023-03-02T11:57:51.824Z,52.30
2023-03-02T12:00:32.340Z,52.30
2023-03-02T12:03:06.906Z,51.90
2023-03-02T12:05:37.619Z,52.00
2023-03-02T12:08:32.498Z,52.00
2023-03-02T12:11:04.730Z,51.90
2023-03-02T12:13:34.813Z,51.90
2023-03-02T12:16:06.179Z,51.90
2023-03-02T12:18:47.609Z,51.80
2023-03-02T12:21:22.148Z,51.60
2023-03-02T12:24:00.841Z,52.00
2023-03-02T12:26:34.907Z,51.30
2023-03-02T12:29:08.880Z,51.30
2023-03-02T12:31:47.549Z,51.30
2023-03-02T12:34:35.031Z,50.90
2023-03-02T12:37:13.014Z,50.80
2023-03-02T12:40:29.737Z,50.80
2023-03-02T12:43:22.332Z,50.30
2023-03-02T12:46:28.962Z,50.00
2023-03-02T12:49:28.812Z,49.80
2023-03-02T12:51:58.827Z,50.00
2023-03-02T12:54:30.099Z,50.50
2023-03-02T12:57:08.999Z,50.40
2023-03-02T12:59:38.173Z,50.20
2023-03-02T13:02:16.295Z,50.10
2023-03-02T13:04:52.780Z,50.10
2023-03-02T13:07:25.530Z,50.20
2023-03-02T13:09:57.458Z,50.30
2023-03-02T13:12:29.332Z,50.10
2023-03-02T13:15:00.133Z,50.10
2023-03-02T13:17:31.765Z,50.00
2023-03-02T13:20:05.288Z,49.90
2023-03-02T13:22:34.139Z,49.70
2023-03-02T13:25:05.578Z,49.90
2023-03-02T13:27:34.716Z,50.00
2023-03-02T13:30:14.011Z,50.00
2023-03-02T13:32:44.011Z,49.80
2023-03-02T13:35:26.149Z,50.10
2023-03-02T13:38:06.489Z,49.60
2023-03-02T13:40:42.451Z,49.50
2023-03-02T13:43:35.473Z,49.60
2023-03-02T13:46:06.460Z,49.50
2023-03-02T13:48:35.093Z,49.70
2023-03-02T13:51:16.146Z,49.80
2023-03-02T13:53:53.140Z,49.70
2023-03-02T13:56:29.654Z,49.90
2023-03-02T13:58:58.248Z,50.00
2023-03-02T14:01:26.586Z,50.10
2023-03-02T14:03:57.304Z,50.00
2023-03-02T14:06:27.111Z,50.00
2023-03-02T14:08:55.550Z,50.10
2023-03-02T14:11:23.852Z,50.10
2023-03-02T14:13:55.493Z,50.10
2023-03-02T14:16:24.280Z,50.10
2023-03-02T14:18:56.261Z,50.10
2023-03-02T14:21:26.979Z,50.10
2023-03-02T14:23:55.473Z,50.10
2023-03-02T14:26:35.405Z,50.10
2023-03-02T14:29:11.222Z,50.00
2023-03-02T14:31:39.509Z,50.10
2023-03-02T14:34:10.665Z,50.10
2023-03-02T14:36:41.113Z,50.10
2023-03-02T14:39:22.446Z,50.20
2023-03-02T14:41:54.233Z,50.00
2023-03-02T14:44:23.343Z,50.00
2023-03-02T14:46:53.056Z,50.10
2023-03-02T14:49:21.981Z,50.10
2023-03-02T14:52:05.802Z,50.00
2023-03-02T14:54:40.002Z,49.80
2023-03-02T14:57:18.688Z,49.90
2023-03-02T14:59:47.350Z,49.80
2023-03-02T15:02:25.144Z,49.80
2023-03-02T15:04:57.250Z,49.80
2023-03-02T15:07:29.606Z,49.90
2023-03-02T15:09:59.149Z,49.80
2023-03-02T15:12:27.584Z,49.80
2023-03-02T15:14:55.902Z,49.80
2023-03-02T15:17:24.413Z,50.30
2023-03-02T15:19:53.132Z,49.80
2023-03-02T15:22:21.420Z,49.80
2023-03-02T15:24:51.352Z,49.70
2023-03-02T15:27:20.378Z,49.70
2023-03-02T15:29:49.168Z,50.00
2023-03-02T15:32:17.974Z,50.40
2023-03-02T15:34:48.515Z,49.80
2023-03-02T15:37:17.142Z,49.80
2023-03-02T15:39:45.534Z,49.80
2023-03-02T15:42:15.324Z,49.80
2023-03-02T15:44:43.651Z,49.70
2023-03-02T15:47:12.640Z,49.80
2023-03-02T15:49:41.115Z,49.80
2023-03-02T15:52:10.922Z,49.70
2023-03-02T15:54:39.508Z,49.70
2023-03-02T15:57:10.185Z,49.60
2023-03-02T15:59:39.990Z,49.60
2023-03-02T16:02:09.330Z,49.60
2023-03-02T16:04:37.907Z,49.60
2023-03-02T16:07:06.369Z,49.60
2023-03-02T16:09:34.737Z,49.60
2023-03-02T16:12:03.037Z,49.60
2023-03-02T16:14:31.502Z,49.60
2023-03-02T16:17:01.220Z,49.60
2023-03-02T16:19:29.549Z,49.70
2023-03-02T16:21:57.920Z,49.80
2023-03-02T16:24:26.713Z,49.80
2023-03-02T16:26:55.204Z,49.80
2023-03-02T16:29:24.220Z,49.80
2023-03-02T16:31:52.842Z,49.90
2023-03-02T16:34:22.627Z,49.80
2023-03-02T16:36:50.995Z,49.80
2023-03-02T16:39:19.427Z,49.90
2023-03-02T16:41:47.821Z,49.90
2023-03-02T16:44:16.297Z,50.00
2023-03-02T16:46:44.978Z,50.00
2023-03-02T16:49:14.695Z,50.00
2023-03-02T16:51:44.940Z,50.10
2023-03-02T16:54:17.190Z,50.10
2023-03-02T16:56:47.512Z,50.20
2023-03-02T16:59:16.261Z,50.20
2023-03-02T17:01:44.767Z,50.70
2023-03-02T17:04:13.223Z,50.40
2023-03-02T17:07:01.800Z,50.30
2023-03-02T17:09:30.820Z,51.00
2023-03-02T17:11:59.418Z,50.50
2023-03-02T17:14:28.583Z,50.50
2023-03-02T17:16:57.886Z,50.60
2023-03-02T17:19:26.952Z,50.60
2023-03-02T17:21:58.214Z,50.70
2023-03-02T17:24:26.944Z,50.70
2023-03-02T17:26:55.503Z,50.70
2023-03-02T17:29:24.420Z,50.80
2023-03-02T17:31:53.268Z,50.90
2023-03-02T17:34:21.696Z,50.90
2023-03-02T17:36:50.130Z,50.80
2023-03-02T17:39:19.855Z,50.70
2023-03-02T17:41:48.182Z,50.80
2023-03-02T17:44:16.566Z,50.90
2023-03-02T17:46:46.604Z,51.00
2023-03-02T17:49:15.075Z,51.20
2023-03-02T17:51:43.395Z,51.10
2023-03-02T17:54:11.789Z,51.10
2023-03-02T17:56:41.544Z,51.10
2023-03-02T17:59:11.608Z,51.20
2023-03-02T18:01:40.682Z,51.20
2023-03-02T18:04:09.117Z,51.20
2023-03-02T18:06:37.556Z,51.20
2023-03-02T18:09:06.384Z,51.30
2023-03-02T18:11:35.042Z,51.40
2023-03-02T18:14:04.865Z,51.40
2023-03-02T18:16:35.484Z,51.50
2023-03-02T18:19:03.973Z,51.50
2023-03-02T18:21:32.547Z,51.60
2023-03-02T18:24:00.937Z,51.60
2023-03-02T18:26:29.334Z,51.60
2023-03-02T18:28:57.748Z,51.70
2023-03-02T18:31:28.504Z,51.80
2023-03-02T18:33:56.925Z,51.80
2023-03-02T18:36:25.278Z,51.80
2023-03-02T18:38:54.568Z,51.80
2023-03-02T18:41:24.072Z,51.90
2023-03-02T18:43:53.222Z,51.90
2023-03-02T18:46:24.026Z,51.90
2023-03-02T18:48:55.475Z,51.90
2023-03-02T18:51:25.959Z,51.80
2023-03-02T18:53:55.511Z,51.90
2023-03-02T18:56:25.100Z,52.00
2023-03-02T18:58:54.599Z,52.70
2023-03-02T19:01:23.099Z,52.00
2023-03-02T19:03:56.933Z,52.00
2023-03-02T19:06:25.467Z,52.50
2023-03-02T19:08:54.075Z,51.90
2023-03-02T19:11:22.662Z,52.00
2023-03-02T19:13:51.259Z,52.10
2023-03-02T19:16:20.115Z,52.10
2023-03-02T19:18:48.828Z,52.20
2023-03-02T19:21:19.116Z,52.10
2023-03-02T19:23:47.698Z,52.20
2023-03-02T19:26:16.138Z,52.30
2023-03-02T19:28:44.445Z,52.30
2023-03-02T19:31:13.806Z,52.20
2023-03-02T19:33:42.702Z,52.30
2023-03-02T19:36:11.330Z,52.30
2023-03-02T19:38:42.958Z,52.30
2023-03-02T19:41:14.720Z,52.20
2023-03-02T19:43:45.383Z,52.40
2023-03-02T19:46:14.164Z,52.30
2023-03-02T19:48:43.629Z,52.30
2023-03-02T19:51:13.526Z,52.20
2023-03-02T19:53:47.006Z,52.40
2023-03-02T19:56:16.608Z,52.30
2023-03-02T19:58:49.951Z,52.30
2023-03-02T20:01:21.871Z,52.40
2023-03-02T20:03:51.721Z,52.40
2023-03-02T20:06:21.744Z,52.40
2023-03-02T20:08:51.489Z,52.40
2023-03-02T20:11:19.899Z,52.30
2023-03-02T20:13:50.664Z,52.40
2023-03-02T20:16:22.961Z,52.40
2023-03-02T20:18:51.894Z,52.40
2023-03-02T20:21:21.337Z,52.40
2023-03-02T20:23:51.047Z,52.50
2023-03-02T20:26:19.904Z,52.50
2023-03-02T20:28:48.380Z,52.50
2023-03-02T20:31:17.101Z,52.50
2023-03-02T20:33:48.690Z,52.80
2023-03-02T20:36:23.573Z,52.70
2023-03-02T20:38:58.447Z,52.80
2023-03-02T20:41:27.160Z,53.00
2023-03-02T20:43:55.850Z,52.70
2023-03-02T20:46:28.881Z,52.60
2023-03-02T20:48:57.615Z,52.60
2023-03-02T20:51:28.256Z,52.50
2023-03-02T20:53:58.897Z,52.50
2023-03-02T20:56:27.604Z,52.80
2023-03-02T20:58:56.089Z,52.70
2023-03-02T21:01:25.936Z,52.70
2023-03-02T21:03:54.472Z,52.80
2023-03-02T21:06:22.804Z,52.90
2023-03-02T21:08:52.582Z,52.80
2023-03-02T21:11:23.205Z,52.90
2023-03-02T21:13:51.566Z,52.90
2023-03-02T21:16:24.007Z,52.80
2023-03-02T21:18:52.523Z,53.00
2023-03-02T21:21:29.690Z,53.10
2023-03-02T21:24:04.697Z,53.10
2023-03-02T21:26:35.090Z,53.10
2023-03-02T21:29:03.776Z,53.10
2023-03-02T21:31:32.696Z,53.10
2023-03-02T21:34:02.092Z,53.10
2023-03-02T21:36:30.960Z,53.10
2023-03-02T21:38:59.312Z,53.10
2023-03-02T21:41:27.724Z,53.20
2023-03-02T21:43:57.832Z,53.20
2023-03-02T21:46:26.381Z,53.10
2023-03-02T21:48:55.173Z,53.10
2023-03-02T21:51:23.571Z,53.10
2023-03-02T21:53:53.197Z,53.60
2023-03-02T21:56:23.792Z,53.00
2023-03-02T21:58:54.019Z,53.10
2023-03-02T22:01:24.893Z,53.10
2023-03-02T22:03:53.741Z,53.20
2023-03-02T22:06:25.315Z,53.20
2023-03-02T22:08:55.693Z,53.20
2023-03-02T22:11:26.624Z,53.30
2023-03-02T22:13:58.436Z,53.30
2023-03-02T22:16:30.124Z,53.30
2023-03-02T22:19:01.189Z,53.30
2023-03-02T22:21:32.449Z,53.40
2023-03-02T22:24:23.130Z,53.40
2023-03-02T22:26:59.221Z,53.50
2023-03-02T22:29:30.515Z,53.40
2023-03-02T22:32:15.685Z,53.60
2023-03-02T22:34:45.313Z,53.40
2023-03-02T22:37:17.596Z,53.40
2023-03-02T22:39:47.513Z,53.40
2023-03-02T22:42:19.480Z,53.50
2023-03-02T22:44:52.519Z,53.40
2023-03-02T22:47:22.458Z,53.40
2023-03-02T22:49:58.160Z,53.30
2023-03-02T22:52:39.370Z,53.40
2023-03-02T22:55:39.938Z,53.40
2023-03-02T22:58:29.673Z,53.40
2023-03-02T23:00:59.692Z,53.40
2023-03-02T23:03:40.420Z,53.30
2023-03-02T23:06:29.748Z,53.30
2023-03-02T23:09:00.516Z,53.30
2023-03-02T23:11:31.032Z,53.30
2023-03-02T23:14:01.775Z,53.40
2023-03-02T23:16:37.109Z,53.40
2023-03-02T23:19:06.862Z,53.50
2023-03-02T23:21:39.740Z,53.50
2023-03-02T23:24:09.885Z,53.60
2023-03-02T23:26:38.750Z,53.60
2023-03-02T23:29:07.714Z,53.70
2023-03-02T23:31:36.130Z,53.70
2023-03-02T23:34:06.350Z,53.70
2023-03-02T23:36:34.830Z,54.30
2023-03-02T23:39:03.187Z,53.60
2023-03-02T23:41:31.720Z,53.70
2023-03-02T23:44:00.116Z,53.70
2023-03-02T23:46:28.617Z,53.70
2023-03-02T23:48:57.921Z,53.70
2023-03-02T23:51:28.099Z,53.70
2023-03-02T23:53:56.529Z,53.70
2023-03-02T23:56:25.440Z,53.60
2023-03-02T23:58:53.778Z,53.60
